sensor_id;sensor_type;location;lat;lon;timestamp;pressure;altitude;pressure_sealevel;temperature;humidity
75640;BME280;64233;51.486;6.332;2023-04-29T00:01:29;101071.53;;;9.01;100.00
75640;BME280;64233;51.486;6.332;2023-04-29T00:03:54;101075.06;;;9.02;100.00
75640;BME280;64233;51.486;6.332;2023-04-29T00:06:19;101080.53;;;8.95;100.00
75640;BME280;64233;51.486;6.332;2023-04-29T00:08:45;101086.34;;;8.92;100.00
75640;BME280;64233;51.486;6.332;2023-04-29T00:11:10;101076.09;;;8.89;100.00
75640;BME280;64233;51.486;6.332;2023-04-29T00:13:36;101079.22;;;8.86;100.00
75640;BME280;64233;51.486;6.332;2023-04-29T00:16:04;101078.06;;;8.82;100.00
75640;BME280;64233;51.486;6.332;2023-04-29T00:18:30;101082.13;;;8.84;100.00
75640;BME280;64233;51.486;6.332;2023-04-29T00:20:56;101081.91;;;8.86;100.00
75640;BME280;64233;51.486;6.332;2023-04-29T00:23:21;101081.47;;;8.89;100.00
75640;BME280;64233;51.486;6.332;2023-04-29T00:25:47;101092.25;;;8.82;100.00
75640;BME280;64233;51.486;6.332;2023-04-29T00:28:12;101094.34;;;8.80;100.00
75640;BME280;64233;51.486;6.332;2023-04-29T00:30:37;101087.81;;;8.76;100.00
75640;BME280;64233;51.486;6.332;2023-04-29T00:33:02;101098.66;;;8.69;100.00
75640;BME280;64233;51.486;6.332;2023-04-29T00:35:28;101093.03;;;8.59;100.00
75640;BME280;64233;51.486;6.332;2023-04-29T00:37:53;101093.16;;;8.52;100.00
75640;BME280;64233;51.486;6.332;2023-04-29T00:40:19;101098.34;;;8.47;100.00
75640;BME280;64233;51.486;6.332;2023-04-29T00:42:44;101098.34;;;8.47;100.00
75640;BME280;64233;51.486;6.332;2023-04-29T00:45:10;101107.19;;;8.48;100.00
75640;BME280;64233;51.486;6.332;2023-04-29T00:47:36;101105.81;;;8.45;100.00
75640;BME280;64233;51.486;6.332;2023-04-29T00:50:03;101099.47;;;8.39;100.00
75640;BME280;64233;51.486;6.332;2023-04-29T00:52:29;101107.28;;;8.41;100.00
75640;BME280;64233;51.486;6.332;2023-04-29T00:54:58;101108.53;;;8.38;100.00
75640;BME280;64233;51.486;6.332;2023-04-29T00:57:24;101115.16;;;8.36;100.00
75640;BME280;64233;51.486;6.332;2023-04-29T00:59:49;101110.41;;;8.38;100.00
75640;BME280;64233;51.486;6.332;2023-04-29T01:02:15;101108.78;;;8.37;100.00
75640;BME280;64233;51.486;6.332;2023-04-29T01:04:41;101114.81;;;8.32;100.00
75640;BME280;64233;51.486;6.332;2023-04-29T01:07:16;101121.78;;;8.33;100.00
75640;BME280;64233;51.486;6.332;2023-04-29T01:09:59;101115.00;;;8.31;100.00
75640;BME280;64233;51.486;6.332;2023-04-29T01:15:09;101125.13;;;8.28;100.00
75640;BME280;64233;51.486;6.332;2023-04-29T01:17:55;101125.38;;;8.27;100.00
75640;BME280;64233;51.486;6.332;2023-04-29T01:20:25;101130.09;;;8.25;100.00
75640;BME280;64233;51.486;6.332;2023-04-29T01:22:50;101123.28;;;8.29;100.00
75640;BME280;64233;51.486;6.332;2023-04-29T01:25:16;101123.50;;;8.27;100.00
75640;BME280;64233;51.486;6.332;2023-04-29T01:27:51;101137.06;;;8.14;100.00
75640;BME280;64233;51.486;6.332;2023-04-29T01:36:05;101136.69;;;8.10;100.00
75640;BME280;64233;51.486;6.332;2023-04-29T01:41:10;101138.31;;;8.12;100.00
75640;BME280;64233;51.486;6.332;2023-04-29T01:43:37;101144.13;;;8.08;100.00
75640;BME280;64233;51.486;6.332;2023-04-29T01:46:08;101146.41;;;8.05;100.00
75640;BME280;64233;51.486;6.332;2023-04-29T01:48:34;101141.53;;;8.02;100.00
75640;BME280;64233;51.486;6.332;2023-04-29T01:51:00;101138.50;;;7.98;100.00
75640;BME280;64233;51.486;6.332;2023-04-29T01:53:26;101148.13;;;7.99;100.00
75640;BME280;64233;51.486;6.332;2023-04-29T01:55:51;101151.41;;;8.01;100.00
75640;BME280;64233;51.486;6.332;2023-04-29T01:58:16;101154.97;;;7.95;100.00
75640;BME280;64233;51.486;6.332;2023-04-29T02:00:42;101162.63;;;7.91;100.00
75640;BME280;64233;51.486;6.332;2023-04-29T02:03:07;101162.56;;;7.98;100.00
75640;BME280;64233;51.486;6.332;2023-04-29T02:05:32;101161.44;;;7.87;100.00
75640;BME280;64233;51.486;6.332;2023-04-29T02:07:59;101157.50;;;7.90;100.00
75640;BME280;64233;51.486;6.332;2023-04-29T02:10:25;101161.66;;;7.86;100.00
75640;BME280;64233;51.486;6.332;2023-04-29T02:12:50;101169.69;;;7.86;100.00
75640;BME280;64233;51.486;6.332;2023-04-29T02:15:15;101166.63;;;7.82;100.00
75640;BME280;64233;51.486;6.332;2023-04-29T02:17:41;101172.81;;;7.83;100.00
75640;BME280;64233;51.486;6.332;2023-04-29T02:20:07;101173.16;;;7.86;100.00
75640;BME280;64233;51.486;6.332;2023-04-29T02:22:34;101181.41;;;7.85;100.00
75640;BME280;64233;51.486;6.332;2023-04-29T02:24:59;101181.41;;;7.85;100.00
75640;BME280;64233;51.486;6.332;2023-04-29T02:27:25;101190.44;;;7.84;100.00
75640;BME280;64233;51.486;6.332;2023-04-29T02:29:50;101183.72;;;7.81;100.00
75640;BME280;64233;51.486;6.332;2023-04-29T02:32:15;101186.16;;;7.83;100.00
75640;BME280;64233;51.486;6.332;2023-04-29T02:34:44;101199.31;;;7.84;100.00
75640;BME280;64233;51.486;6.332;2023-04-29T02:37:09;101191.28;;;7.84;100.00
75640;BME280;64233;51.486;6.332;2023-04-29T02:39:35;101196.63;;;7.84;100.00
75640;BME280;64233;51.486;6.332;2023-04-29T02:42:00;101198.34;;;7.79;100.00
75640;BME280;64233;51.486;6.332;2023-04-29T02:44:25;101201.38;;;7.82;100.00
75640;BME280;64233;51.486;6.332;2023-04-29T02:46:51;101196.91;;;7.76;100.00
75640;BME280;64233;51.486;6.332;2023-04-29T02:49:16;101203.28;;;7.75;100.00
75640;BME280;64233;51.486;6.332;2023-04-29T02:51:41;101205.97;;;7.75;100.00
75640;BME280;64233;51.486;6.332;2023-04-29T02:54:06;101206.59;;;7.77;100.00
75640;BME280;64233;51.486;6.332;2023-04-29T02:56:32;101207.78;;;7.81;100.00
75640;BME280;64233;51.486;6.332;2023-04-29T02:58:57;101211.47;;;7.80;100.00
75640;BME280;64233;51.486;6.332;2023-04-29T03:01:22;101210.50;;;7.74;100.00
75640;BME280;64233;51.486;6.332;2023-04-29T03:03:48;101218.34;;;7.69;100.00
75640;BME280;64233;51.486;6.332;2023-04-29T03:06:13;101214.88;;;7.69;100.00
75640;BME280;64233;51.486;6.332;2023-04-29T03:08:40;101215.91;;;7.68;100.00
75640;BME280;64233;51.486;6.332;2023-04-29T03:11:05;101222.91;;;7.69;100.00
75640;BME280;64233;51.486;6.332;2023-04-29T03:13:30;101223.94;;;7.68;100.00
75640;BME280;64233;51.486;6.332;2023-04-29T03:15:56;101230.28;;;7.67;100.00
75640;BME280;64233;51.486;6.332;2023-04-29T03:18:23;101229.13;;;7.63;100.00
75640;BME280;64233;51.486;6.332;2023-04-29T03:20:48;101239.81;;;7.63;100.00
75640;BME280;64233;51.486;6.332;2023-04-29T03:23:14;101236.53;;;7.61;100.00
75640;BME280;64233;51.486;6.332;2023-04-29T03:25:39;101243.53;;;7.62;100.00
75640;BME280;64233;51.486;6.332;2023-04-29T03:28:04;101239.19;;;7.61;100.00
75640;BME280;64233;51.486;6.332;2023-04-29T03:30:30;101242.31;;;7.57;100.00
75640;BME280;64233;51.486;6.332;2023-04-29T03:32:56;101241.50;;;7.57;100.00
75640;BME280;64233;51.486;6.332;2023-04-29T03:35:21;101247.03;;;7.55;100.00
75640;BME280;64233;51.486;6.332;2023-04-29T03:37:46;101245.78;;;7.58;100.00
75640;BME280;64233;51.486;6.332;2023-04-29T03:40:12;101243.75;;;7.60;100.00
75640;BME280;64233;51.486;6.332;2023-04-29T03:42:37;101248.03;;;7.61;100.00
75640;BME280;64233;51.486;6.332;2023-04-29T03:45:03;101248.25;;;7.59;100.00
75640;BME280;64233;51.486;6.332;2023-04-29T03:47:28;101250.69;;;7.61;100.00
75640;BME280;64233;51.486;6.332;2023-04-29T03:49:54;101251.91;;;7.65;100.00
75640;BME280;64233;51.486;6.332;2023-04-29T03:52:19;101257.63;;;7.69;100.00
75640;BME280;64233;51.486;6.332;2023-04-29T03:54:44;101255.84;;;7.63;100.00
75640;BME280;64233;51.486;6.332;2023-04-29T03:57:10;101262.00;;;7.63;100.00
75640;BME280;64233;51.486;6.332;2023-04-29T03:59:35;101257.69;;;7.62;100.00
75640;BME280;64233;51.486;6.332;2023-04-29T04:02:00;101255.00;;;7.62;100.00
75640;BME280;64233;51.486;6.332;2023-04-29T04:04:25;101256.66;;;7.63;100.00
75640;BME280;64233;51.486;6.332;2023-04-29T04:06:51;101262.44;;;7.60;100.00
75640;BME280;64233;51.486;6.332;2023-04-29T04:09:19;101260.56;;;7.61;100.00
75640;BME280;64233;51.486;6.332;2023-04-29T04:11:45;101267.34;;;7.63;100.00
75640;BME280;64233;51.486;6.332;2023-04-29T04:14:10;101272.69;;;7.63;100.00
75640;BME280;64233;51.486;6.332;2023-04-29T04:16:35;101265.91;;;7.61;100.00
75640;BME280;64233;51.486;6.332;2023-04-29T04:19:01;101269.22;;;7.63;100.00
75640;BME280;64233;51.486;6.332;2023-04-29T04:21:27;101274.56;;;7.63;100.00
75640;BME280;64233;51.486;6.332;2023-04-29T04:23:52;101282.56;;;7.63;100.00
75640;BME280;64233;51.486;6.332;2023-04-29T04:26:18;101277.22;;;7.63;100.00
75640;BME280;64233;51.486;6.332;2023-04-29T04:28:44;101284.19;;;7.64;100.00
75640;BME280;64233;51.486;6.332;2023-04-29T04:31:10;101280.47;;;7.65;100.00
75640;BME280;64233;51.486;6.332;2023-04-29T04:33:35;101280.88;;;7.68;100.00
75640;BME280;64233;51.486;6.332;2023-04-29T04:36:00;101292.59;;;7.67;100.00
75640;BME280;64233;51.486;6.332;2023-04-29T04:38:25;101291.56;;;7.68;100.00
75640;BME280;64233;51.486;6.332;2023-04-29T04:40:52;101294.00;;;7.70;100.00
75640;BME280;64233;51.486;6.332;2023-04-29T04:43:17;101293.19;;;7.69;100.00
75640;BME280;64233;51.486;6.332;2023-04-29T04:45:43;101305.72;;;7.69;100.00
75640;BME280;64233;51.486;6.332;2023-04-29T04:48:08;101310.28;;;7.68;100.00
75640;BME280;64233;51.486;6.332;2023-04-29T04:50:33;101309.22;;;7.69;100.00
75640;BME280;64233;51.486;6.332;2023-04-29T04:52:58;101314.34;;;7.71;100.00
75640;BME280;64233;51.486;6.332;2023-04-29T04:55:24;101320.53;;;7.71;100.00
75640;BME280;64233;51.486;6.332;2023-04-29T04:57:50;101325.63;;;7.73;100.00
75640;BME280;64233;51.486;6.332;2023-04-29T05:00:15;101324.00;;;7.72;100.00
75640;BME280;64233;51.486;6.332;2023-04-29T05:02:41;101331.22;;;7.71;100.00
75640;BME280;64233;51.486;6.332;2023-04-29T05:05:07;101321.75;;;7.69;100.00
75640;BME280;64233;51.486;6.332;2023-04-29T05:07:32;101334.09;;;7.70;100.00
75640;BME280;64233;51.486;6.332;2023-04-29T05:10:00;101332.81;;;7.72;100.00
75640;BME280;64233;51.486;6.332;2023-04-29T05:12:27;101340.03;;;7.72;100.00
75640;BME280;64233;51.486;6.332;2023-04-29T05:14:54;101342.88;;;7.77;100.00
75640;BME280;64233;51.486;6.332;2023-04-29T05:17:20;101343.50;;;7.72;100.00
75640;BME280;64233;51.486;6.332;2023-04-29T05:19:45;101349.06;;;7.71;100.00
75640;BME280;64233;51.486;6.332;2023-04-29T05:22:10;101355.03;;;7.73;100.00
75640;BME280;64233;51.486;6.332;2023-04-29T05:24:36;101357.28;;;7.76;100.00
75640;BME280;64233;51.486;6.332;2023-04-29T05:27:01;101356.06;;;7.72;100.00
75640;BME280;64233;51.486;6.332;2023-04-29T05:29:28;101361.41;;;7.72;100.00
75640;BME280;64233;51.486;6.332;2023-04-29T05:31:54;101362.84;;;7.74;100.00
75640;BME280;64233;51.486;6.332;2023-04-29T05:34:19;101367.16;;;7.75;100.00
75640;BME280;64233;51.486;6.332;2023-04-29T05:36:44;101366.31;;;7.75;100.00
75640;BME280;64233;51.486;6.332;2023-04-29T05:39:10;101366.75;;;7.72;100.00
75640;BME280;64233;51.486;6.332;2023-04-29T05:41:35;101374.34;;;7.75;100.00
75640;BME280;64233;51.486;6.332;2023-04-29T05:44:01;101382.34;;;7.75;100.00
75640;BME280;64233;51.486;6.332;2023-04-29T05:46:26;101376.41;;;7.73;100.00
75640;BME280;64233;51.486;6.332;2023-04-29T05:48:51;101376.19;;;7.74;100.00
75640;BME280;64233;51.486;6.332;2023-04-29T05:51:16;101381.31;;;7.76;100.00
75640;BME280;64233;51.486;6.332;2023-04-29T05:53:42;101393.44;;;7.79;100.00
75640;BME280;64233;51.486;6.332;2023-04-29T05:56:07;101395.09;;;7.80;100.00
75640;BME280;64233;51.486;6.332;2023-04-29T05:58:33;101395.09;;;7.80;100.00
75640;BME280;64233;51.486;6.332;2023-04-29T06:00:59;101403.91;;;7.80;100.00
75640;BME280;64233;51.486;6.332;2023-04-29T06:03:24;101409.84;;;7.82;100.00
75640;BME280;64233;51.486;6.332;2023-04-29T06:05:50;101406.53;;;7.87;100.00
75640;BME280;64233;51.486;6.332;2023-04-29T06:08:15;101404.25;;;7.90;100.00
75640;BME280;64233;51.486;6.332;2023-04-29T06:10:40;101421.69;;;7.93;100.00
75640;BME280;64233;51.486;6.332;2023-04-29T06:13:06;101414.28;;;7.95;100.00
75640;BME280;64233;51.486;6.332;2023-04-29T06:15:31;101424.75;;;7.97;100.00
75640;BME280;64233;51.486;6.332;2023-04-29T06:17:56;101428.03;;;7.99;100.00
75640;BME280;64233;51.486;6.332;2023-04-29T06:20:22;101429.91;;;7.98;100.00
75640;BME280;64233;51.486;6.332;2023-04-29T06:22:47;101437.69;;;8.00;100.00
75640;BME280;64233;51.486;6.332;2023-04-29T06:25:12;101436.72;;;7.94;100.00
75640;BME280;64233;51.486;6.332;2023-04-29T06:27:38;101438.78;;;7.92;100.00
75640;BME280;64233;51.486;6.332;2023-04-29T06:30:03;101445.97;;;7.91;100.00
75640;BME280;64233;51.486;6.332;2023-04-29T06:32:29;101444.06;;;7.99;100.00
75640;BME280;64233;51.486;6.332;2023-04-29T06:34:54;101444.06;;;7.99;100.00
75640;BME280;64233;51.486;6.332;2023-04-29T06:37:19;101447.13;;;8.02;100.00
75640;BME280;64233;51.486;6.332;2023-04-29T06:39:45;101455.53;;;8.06;100.00
75640;BME280;64233;51.486;6.332;2023-04-29T06:42:10;101458.44;;;8.04;100.00
75640;BME280;64233;51.486;6.332;2023-04-29T06:44:35;101458.22;;;8.06;100.00
75640;BME280;64233;51.486;6.332;2023-04-29T06:47:01;101459.63;;;8.08;100.00
75640;BME280;64233;51.486;6.332;2023-04-29T06:49:26;101467.25;;;8.05;100.00
75640;BME280;64233;51.486;6.332;2023-04-29T06:51:51;101462.31;;;8.08;100.00
75640;BME280;64233;51.486;6.332;2023-04-29T06:54:17;101464.09;;;8.15;100.00
75640;BME280;64233;51.486;6.332;2023-04-29T06:56:42;101472.56;;;8.12;100.00
75640;BME280;64233;51.486;6.332;2023-04-29T06:59:07;101463.88;;;8.16;100.00
75640;BME280;64233;51.486;6.332;2023-04-29T07:01:36;101468.88;;;8.13;100.00
75640;BME280;64233;51.486;6.332;2023-04-29T07:04:01;101477.69;;;8.13;100.00
75640;BME280;64233;51.486;6.332;2023-04-29T07:06:26;101475.19;;;8.18;100.00
75640;BME280;64233;51.486;6.332;2023-04-29T07:08:52;101478.25;;;8.22;100.00
75640;BME280;64233;51.486;6.332;2023-04-29T07:11:17;101476.91;;;8.38;100.00
75640;BME280;64233;51.486;6.332;2023-04-29T07:13:43;101485.28;;;8.41;100.00
75640;BME280;64233;51.486;6.332;2023-04-29T07:16:17;101485.13;;;8.36;100.00
75640;BME280;64233;51.486;6.332;2023-04-29T07:18:44;101495.19;;;8.41;100.00
75640;BME280;64233;51.486;6.332;2023-04-29T07:21:09;101497.66;;;8.42;100.00
75640;BME280;64233;51.486;6.332;2023-04-29T07:23:35;101501.69;;;8.52;100.00
75640;BME280;64233;51.486;6.332;2023-04-29T07:26:11;101503.81;;;8.68;100.00
75640;BME280;64233;51.486;6.332;2023-04-29T07:28:36;101510.22;;;8.67;100.00
75640;BME280;64233;51.486;6.332;2023-04-29T07:31:01;101515.50;;;8.74;100.00
75640;BME280;64233;51.486;6.332;2023-04-29T07:33:26;101515.38;;;8.87;100.00
75640;BME280;64233;51.486;6.332;2023-04-29T07:35:52;101526.47;;;9.09;100.00
75640;BME280;64233;51.486;6.332;2023-04-29T07:38:18;101520.09;;;8.92;100.00
75640;BME280;64233;51.486;6.332;2023-04-29T07:40:45;101524.09;;;9.01;100.00
75640;BME280;64233;51.486;6.332;2023-04-29T07:43:10;101522.44;;;8.82;100.00
75640;BME280;64233;51.486;6.332;2023-04-29T07:45:37;101530.03;;;8.85;100.00
75640;BME280;64233;51.486;6.332;2023-04-29T07:48:02;101527.94;;;8.87;100.00
75640;BME280;64233;51.486;6.332;2023-04-29T07:50:27;101532.56;;;8.98;100.00
75640;BME280;64233;51.486;6.332;2023-04-29T07:52:53;101538.69;;;9.05;100.00
75640;BME280;64233;51.486;6.332;2023-04-29T07:55:19;101538.72;;;8.80;100.00
75640;BME280;64233;51.486;6.332;2023-04-29T07:57:44;101536.03;;;8.80;100.00
75640;BME280;64233;51.486;6.332;2023-04-29T08:00:10;101546.16;;;8.78;100.00
75640;BME280;64233;51.486;6.332;2023-04-29T08:02:36;101549.41;;;8.80;100.00
75640;BME280;64233;51.486;6.332;2023-04-29T08:05:01;101556.09;;;8.71;100.00
75640;BME280;64233;51.486;6.332;2023-04-29T08:07:27;101552.41;;;8.72;100.00
75640;BME280;64233;51.486;6.332;2023-04-29T08:09:52;101558.56;;;8.72;100.00
75640;BME280;64233;51.486;6.332;2023-04-29T08:12:18;101564.94;;;8.71;100.00
75640;BME280;64233;51.486;6.332;2023-04-29T08:14:43;101558.91;;;8.76;100.00
75640;BME280;64233;51.486;6.332;2023-04-29T08:17:08;101567.41;;;8.73;100.00
75640;BME280;64233;51.486;6.332;2023-04-29T08:19:33;101569.44;;;8.77;100.00
75640;BME280;64233;51.486;6.332;2023-04-29T08:21:59;101570.69;;;8.75;100.00
75640;BME280;64233;51.486;6.332;2023-04-29T08:24:25;101562.31;;;8.90;100.00
75640;BME280;64233;51.486;6.332;2023-04-29T08:26:50;101565.81;;;8.90;100.00
75640;BME280;64233;51.486;6.332;2023-04-29T08:29:16;101569.81;;;8.81;100.00
75640;BME280;64233;51.486;6.332;2023-04-29T08:31:42;101574.94;;;8.83;100.00
75640;BME280;64233;51.486;6.332;2023-04-29T08:34:07;101579.47;;;8.82;100.00
75640;BME280;64233;51.486;6.332;2023-04-29T08:36:33;101577.03;;;8.81;100.00
75640;BME280;64233;51.486;6.332;2023-04-29T08:38:58;101579.34;;;8.95;100.00
75640;BME280;64233;51.486;6.332;2023-04-29T08:41:23;101587.38;;;8.95;100.00
75640;BME280;64233;51.486;6.332;2023-04-29T08:43:49;101586.03;;;8.86;100.00
75640;BME280;64233;51.486;6.332;2023-04-29T08:46:15;101588.06;;;8.91;100.00
75640;BME280;64233;51.486;6.332;2023-04-29T08:48:41;101589.91;;;8.90;100.00
75640;BME280;64233;51.486;6.332;2023-04-29T08:51:07;101590.16;;;8.89;100.00
75640;BME280;64233;51.486;6.332;2023-04-29T08:53:35;101591.94;;;8.95;100.00
75640;BME280;64233;51.486;6.332;2023-04-29T08:56:06;101601.00;;;8.94;100.00
75640;BME280;64233;51.486;6.332;2023-04-29T08:58:33;101611.25;;;8.97;100.00
75640;BME280;64233;51.486;6.332;2023-04-29T09:01:00;101603.22;;;8.97;100.00
75640;BME280;64233;51.486;6.332;2023-04-29T09:03:30;101612.53;;;8.94;100.00
75640;BME280;64233;51.486;6.332;2023-04-29T09:05:59;101611.00;;;9.05;100.00
75640;BME280;64233;51.486;6.332;2023-04-29T09:08:26;101614.88;;;9.09;100.00
75640;BME280;64233;51.486;6.332;2023-04-29T09:10:52;101613.44;;;9.07;100.00
75640;BME280;64233;51.486;6.332;2023-04-29T09:13:31;101611.63;;;9.26;100.00
75640;BME280;64233;51.486;6.332;2023-04-29T09:15:56;101617.50;;;9.16;100.00
75640;BME280;64233;51.486;6.332;2023-04-29T09:21:25;101616.69;;;9.34;100.00
75640;BME280;64233;51.486;6.332;2023-04-29T09:23:58;101627.50;;;9.46;100.00
75640;BME280;64233;51.486;6.332;2023-04-29T09:26:24;101621.63;;;9.37;100.00
75640;BME280;64233;51.486;6.332;2023-04-29T09:29:08;101620.88;;;9.30;100.00
75640;BME280;64233;51.486;6.332;2023-04-29T09:31:36;101618.38;;;9.28;100.00
75640;BME280;64233;51.486;6.332;2023-04-29T09:34:02;101616.09;;;9.32;100.00
75640;BME280;64233;51.486;6.332;2023-04-29T09:36:35;101622.22;;;9.39;100.00
75640;BME280;64233;51.486;6.332;2023-04-29T09:39:02;101625.34;;;9.36;100.00
75640;BME280;64233;51.486;6.332;2023-04-29T09:41:29;101626.06;;;9.43;100.00
75640;BME280;64233;51.486;6.332;2023-04-29T09:44:05;101626.03;;;9.50;100.00
75640;BME280;64233;51.486;6.332;2023-04-29T09:46:34;101634.34;;;9.79;100.00
75640;BME280;64233;51.486;6.332;2023-04-29T09:49:01;101631.97;;;9.71;100.00
75640;BME280;64233;51.486;6.332;2023-04-29T09:51:26;101642.56;;;9.65;100.00
75640;BME280;64233;51.486;6.332;2023-04-29T09:53:52;101634.75;;;9.64;100.00
75640;BME280;64233;51.486;6.332;2023-04-29T09:56:17;101639.34;;;9.75;100.00
75640;BME280;64233;51.486;6.332;2023-04-29T09:58:42;101639.34;;;9.94;100.00
75640;BME280;64233;51.486;6.332;2023-04-29T10:01:08;101649.75;;;10.02;100.00
75640;BME280;64233;51.486;6.332;2023-04-29T10:03:35;101648.41;;;10.11;100.00
75640;BME280;64233;51.486;6.332;2023-04-29T10:06:02;101646.84;;;10.04;100.00
75640;BME280;64233;51.486;6.332;2023-04-29T10:08:29;101653.38;;;10.08;100.00
75640;BME280;64233;51.486;6.332;2023-04-29T10:10:58;101646.09;;;9.96;100.00
75640;BME280;64233;51.486;6.332;2023-04-29T10:13:24;101659.19;;;10.05;100.00
75640;BME280;64233;51.486;6.332;2023-04-29T10:15:57;101661.00;;;10.11;100.00
75640;BME280;64233;51.486;6.332;2023-04-29T10:18:34;101660.34;;;10.27;100.00
75640;BME280;64233;51.486;6.332;2023-04-29T10:21:02;101665.41;;;10.05;100.00
75640;BME280;64233;51.486;6.332;2023-04-29T10:23:28;101663.53;;;10.06;100.00
75640;BME280;64233;51.486;6.332;2023-04-29T10:25:54;101666.72;;;10.14;100.00
75640;BME280;64233;51.486;6.332;2023-04-29T10:28:22;101666.59;;;10.09;100.00
75640;BME280;64233;51.486;6.332;2023-04-29T10:30:53;101667.94;;;10.00;100.00
75640;BME280;64233;51.486;6.332;2023-04-29T10:33:19;101669.31;;;10.21;100.00
75640;BME280;64233;51.486;6.332;2023-04-29T10:35:46;101674.09;;;10.19;100.00
75640;BME280;64233;51.486;6.332;2023-04-29T10:38:19;101678.31;;;10.45;100.00
75640;BME280;64233;51.486;6.332;2023-04-29T10:40:48;101679.66;;;10.36;100.00
75640;BME280;64233;51.486;6.332;2023-04-29T10:43:15;101681.81;;;10.27;100.00
75640;BME280;64233;51.486;6.332;2023-04-29T10:45:46;101688.16;;;10.33;100.00
75640;BME280;64233;51.486;6.332;2023-04-29T10:48:12;101683.84;;;10.32;100.00
75640;BME280;64233;51.486;6.332;2023-04-29T10:53:16;101682.03;;;10.44;100.00
75640;BME280;64233;51.486;6.332;2023-04-29T10:55:46;101671.22;;;10.51;100.00
75640;BME280;64233;51.486;6.332;2023-04-29T11:01:01;101680.31;;;11.04;100.00
75640;BME280;64233;51.486;6.332;2023-04-29T11:03:53;101675.78;;;11.05;100.00
75640;BME280;64233;51.486;6.332;2023-04-29T11:06:24;101674.50;;;11.19;100.00
75640;BME280;64233;51.486;6.332;2023-04-29T11:09:14;101673.81;;;11.12;100.00
75640;BME280;64233;51.486;6.332;2023-04-29T11:11:46;101676.59;;;11.05;100.00
75640;BME280;64233;51.486;6.332;2023-04-29T11:14:14;101674.50;;;11.07;100.00
75640;BME280;64233;51.486;6.332;2023-04-29T11:17:13;101680.22;;;11.46;100.00
75640;BME280;64233;51.486;6.332;2023-04-29T11:19:41;101672.41;;;11.21;100.00
75640;BME280;64233;51.486;6.332;2023-04-29T11:22:23;101676.03;;;11.27;100.00
75640;BME280;64233;51.486;6.332;2023-04-29T11:24:49;101677.91;;;11.50;100.00
75640;BME280;64233;51.486;6.332;2023-04-29T11:27:16;101682.09;;;11.58;100.00
75640;BME280;64233;51.486;6.332;2023-04-29T11:29:44;101678.94;;;11.73;100.00
75640;BME280;64233;51.486;6.332;2023-04-29T11:32:09;101676.94;;;11.68;100.00
75640;BME280;64233;51.486;6.332;2023-04-29T11:34:35;101664.53;;;11.79;100.00
75640;BME280;64233;51.486;6.332;2023-04-29T11:37:00;101669.03;;;12.43;100.00
75640;BME280;64233;51.486;6.332;2023-04-29T11:39:26;101673.75;;;12.07;100.00
75640;BME280;64233;51.486;6.332;2023-04-29T11:42:02;101669.34;;;12.29;100.00
75640;BME280;64233;51.486;6.332;2023-04-29T11:44:27;101685.19;;;12.43;100.00
75640;BME280;64233;51.486;6.332;2023-04-29T11:47:00;101675.19;;;12.26;100.00
75640;BME280;64233;51.486;6.332;2023-04-29T11:49:33;101678.91;;;11.96;100.00
75640;BME280;64233;51.486;6.332;2023-04-29T11:51:59;101677.84;;;11.97;100.00
75640;BME280;64233;51.486;6.332;2023-04-29T11:54:29;101680.56;;;11.85;100.00
75640;BME280;64233;51.486;6.332;2023-04-29T11:56:55;101679.03;;;11.78;100.00
75640;BME280;64233;51.486;6.332;2023-04-29T11:59:21;101680.91;;;11.77;100.00
75640;BME280;64233;51.486;6.332;2023-04-29T12:01:48;101684.66;;;11.88;100.00
75640;BME280;64233;51.486;6.332;2023-04-29T12:04:13;101693.88;;;11.80;100.00
75640;BME280;64233;51.486;6.332;2023-04-29T12:06:38;101684.53;;;11.83;100.00
75640;BME280;64233;51.486;6.332;2023-04-29T12:09:05;101687.09;;;11.78;100.00
75640;BME280;64233;51.486;6.332;2023-04-29T12:11:31;101673.75;;;12.07;100.00
75640;BME280;64233;51.486;6.332;2023-04-29T12:13:56;101678.88;;;12.08;100.00
75640;BME280;64233;51.486;6.332;2023-04-29T12:16:25;101684.34;;;12.13;100.00
75640;BME280;64233;51.486;6.332;2023-04-29T12:18:53;101680.56;;;12.26;100.00
75640;BME280;64233;51.486;6.332;2023-04-29T12:21:20;101686.41;;;12.35;100.00
75640;BME280;64233;51.486;6.332;2023-04-29T12:23:47;101680.63;;;12.14;100.00
75640;BME280;64233;51.486;6.332;2023-04-29T12:26:12;101688.56;;;12.09;100.00
75640;BME280;64233;51.486;6.332;2023-04-29T12:28:39;101685.22;;;11.90;100.00
75640;BME280;64233;51.486;6.332;2023-04-29T12:31:08;101681.94;;;11.88;100.00
75640;BME280;64233;51.486;6.332;2023-04-29T12:33:35;101685.91;;;11.97;100.00
75640;BME280;64233;51.486;6.332;2023-04-29T12:36:00;101683.66;;;12.18;100.00
75640;BME280;64233;51.486;6.332;2023-04-29T12:38:28;101686.19;;;12.25;100.00
75640;BME280;64233;51.486;6.332;2023-04-29T12:40:58;101679.66;;;12.20;100.00
75640;BME280;64233;51.486;6.332;2023-04-29T12:43:26;101683.84;;;12.28;100.00
75640;BME280;64233;51.486;6.332;2023-04-29T12:45:53;101681.53;;;12.20;100.00
75640;BME280;64233;51.486;6.332;2023-04-29T12:48:19;101678.41;;;12.11;100.00
75640;BME280;64233;51.486;6.332;2023-04-29T12:50:48;101690.41;;;12.20;100.00
75640;BME280;64233;51.486;6.332;2023-04-29T12:53:13;101692.16;;;12.27;100.00
75640;BME280;64233;51.486;6.332;2023-04-29T12:55:39;101693.44;;;12.24;100.00
75640;BME280;64233;51.486;6.332;2023-04-29T12:58:05;101698.06;;;12.12;100.00
75640;BME280;64233;51.486;6.332;2023-04-29T13:00:31;101692.50;;;12.30;100.00
75640;BME280;64233;51.486;6.332;2023-04-29T13:02:58;101691.19;;;12.33;100.00
75640;BME280;64233;51.486;6.332;2023-04-29T13:05:23;101702.16;;;12.43;100.00